createdAt,value
2019-03-15T00:01:39.764Z,17.70
2019-03-15T00:04:07.991Z,14.60
2019-03-15T00:06:36.199Z,10.90
2019-03-15T00:09:07.677Z,11.08
2019-03-15T00:11:35.917Z,17.15
2019-03-15T00:14:04.185Z,14.43
2019-03-15T00:16:32.404Z,13.13
2019-03-15T00:19:00.612Z,12.53
2019-03-15T00:21:28.854Z,16.15
2019-03-15T00:23:57.062Z,12.78
2019-03-15T00:26:25.272Z,12.90
2019-03-15T00:28:53.478Z,9.18
2019-03-15T00:31:21.684Z,14.28
2019-03-15T00:33:50.673Z,14.63
2019-03-15T00:36:18.878Z,12.68
2019-03-15T00:38:47.109Z,14.05
2019-03-15T00:41:15.317Z,17.52
2019-03-15T00:43:43.540Z,11.68
2019-03-15T00:46:11.742Z,17.17
2019-03-15T00:48:39.959Z,11.68
2019-03-15T00:51:08.195Z,13.75
2019-03-15T00:53:36.404Z,14.30
2019-03-15T00:56:04.618Z,12.67
2019-03-15T00:58:32.826Z,14.75
2019-03-15T01:01:01.030Z,15.38
2019-03-15T01:03:29.238Z,19.50
2019-03-15T01:05:57.546Z,16.70
2019-03-15T01:08:25.775Z,14.27
2019-03-15T01:10:53.976Z,13.32
2019-03-15T01:13:22.191Z,13.40
2019-03-15T01:15:50.411Z,21.68
2019-03-15T01:18:18.650Z,19.48
2019-03-15T01:20:46.832Z,17.37
2019-03-15T01:23:15.042Z,15.45
2019-03-15T01:25:43.292Z,11.40
2019-03-15T01:28:11.494Z,15.93
2019-03-15T01:30:39.705Z,17.92
2019-03-15T01:33:07.921Z,15.70
2019-03-15T01:35:36.125Z,14.65
2019-03-15T01:38:04.358Z,17.52
2019-03-15T01:40:32.564Z,18.00
2019-03-15T01:43:00.804Z,18.67
2019-03-15T01:45:29.003Z,14.03
2019-03-15T01:47:57.203Z,16.23
2019-03-15T01:50:25.422Z,18.90
2019-03-15T01:52:53.631Z,14.43
2019-03-15T01:55:21.862Z,13.47
2019-03-15T01:57:50.069Z,16.50
2019-03-15T02:00:18.293Z,22.55
2019-03-15T02:02:46.964Z,17.32
2019-03-15T02:05:15.172Z,13.78
2019-03-15T02:07:43.397Z,17.32
2019-03-15T02:10:11.599Z,14.20
2019-03-15T02:12:39.827Z,16.67
2019-03-15T02:15:10.713Z,15.35
2019-03-15T02:17:39.077Z,19.10
2019-03-15T02:20:08.351Z,13.00
2019-03-15T02:22:36.558Z,13.60
2019-03-15T02:25:05.134Z,18.70
2019-03-15T02:27:33.347Z,13.20
2019-03-15T02:30:01.562Z,12.43
2019-03-15T02:32:29.778Z,10.85
2019-03-15T02:34:57.991Z,11.70
2019-03-15T02:37:26.191Z,15.60
2019-03-15T02:39:54.432Z,14.60
2019-03-15T02:42:22.658Z,13.28
2019-03-15T02:44:50.850Z,15.78
2019-03-15T02:47:19.641Z,17.55
2019-03-15T02:49:48.347Z,11.85
2019-03-15T02:52:17.125Z,16.90
2019-03-15T02:54:45.350Z,15.30
2019-03-15T02:57:13.565Z,19.92
2019-03-15T02:59:41.808Z,15.98
2019-03-15T03:02:10.067Z,13.83
2019-03-15T03:04:38.362Z,22.15
2019-03-15T03:07:06.597Z,19.48
2019-03-15T03:09:34.813Z,22.20
2019-03-15T03:12:03.030Z,22.40
2019-03-15T03:14:31.250Z,13.90
2019-03-15T03:16:59.472Z,17.55
2019-03-15T03:19:28.218Z,11.97
2019-03-15T03:21:56.580Z,21.42
2019-03-15T03:24:24.878Z,19.32
2019-03-15T03:26:53.080Z,16.75
2019-03-15T03:29:21.819Z,11.45
2019-03-15T03:31:50.497Z,11.85
2019-03-15T03:34:18.686Z,14.20
2019-03-15T03:36:47.386Z,12.10
2019-03-15T03:39:15.600Z,9.03
2019-03-15T03:41:43.804Z,12.35
2019-03-15T03:44:12.062Z,9.00
2019-03-15T03:46:40.270Z,12.57
2019-03-15T03:49:08.507Z,15.03
2019-03-15T03:51:36.717Z,13.58
2019-03-15T03:54:05.038Z,17.57
2019-03-15T03:56:33.238Z,14.38
2019-03-15T03:59:01.466Z,18.70
2019-03-15T04:01:29.712Z,13.53
2019-03-15T04:03:57.951Z,15.48
2019-03-15T04:06:26.359Z,14.98
2019-03-15T04:08:54.570Z,16.35
2019-03-15T04:11:22.792Z,19.73
2019-03-15T04:13:51.044Z,17.42
2019-03-15T04:16:19.240Z,18.73
2019-03-15T04:18:47.539Z,13.90
2019-03-15T04:21:15.759Z,14.85
2019-03-15T04:23:44.001Z,16.35
2019-03-15T04:26:12.217Z,17.75
2019-03-15T04:28:40.430Z,18.40
2019-03-15T04:31:08.639Z,14.78
2019-03-15T04:33:36.917Z,16.27
2019-03-15T04:36:05.086Z,13.65
2019-03-15T04:38:33.290Z,21.90
2019-03-15T04:41:01.511Z,21.68
2019-03-15T04:43:29.723Z,29.67
2019-03-15T04:45:57.944Z,31.90
2019-03-15T04:48:26.162Z,31.52
2019-03-15T04:50:54.376Z,39.40
2019-03-15T04:53:22.594Z,33.42
2019-03-15T04:55:50.802Z,35.98
2019-03-15T04:58:19.003Z,33.35
2019-03-15T05:00:47.660Z,36.00
2019-03-15T05:03:15.867Z,39.92
2019-03-15T05:05:44.102Z,34.90
2019-03-15T05:08:12.310Z,34.00
2019-03-15T05:10:40.532Z,33.73
2019-03-15T05:13:08.758Z,29.18
2019-03-15T05:15:36.960Z,34.55
2019-03-15T05:18:05.170Z,33.80
2019-03-15T05:20:33.403Z,36.25
2019-03-15T05:23:01.608Z,36.23
2019-03-15T05:25:30.133Z,35.55
2019-03-15T05:27:58.599Z,38.33
2019-03-15T05:30:26.804Z,26.47
2019-03-15T05:32:55.028Z,33.80
2019-03-15T05:35:23.246Z,28.45
2019-03-15T05:37:51.451Z,34.95
2019-03-15T05:40:19.686Z,32.50
2019-03-15T05:42:47.931Z,35.33
2019-03-15T05:45:16.136Z,40.50
2019-03-15T05:47:44.374Z,36.83
2019-03-15T05:50:12.932Z,28.87
2019-03-15T05:52:41.141Z,37.48
2019-03-15T05:55:14.067Z,39.30
2019-03-15T05:57:42.266Z,34.43
2019-03-15T06:00:15.416Z,38.60
2019-03-15T06:02:43.634Z,34.03
2019-03-15T06:05:11.847Z,38.65
2019-03-15T06:07:40.091Z,40.10
2019-03-15T06:10:13.229Z,35.00
2019-03-15T06:12:41.447Z,34.80
2019-03-15T06:15:10.927Z,37.45
2019-03-15T06:17:39.144Z,41.02
2019-03-15T06:20:13.656Z,33.00
2019-03-15T06:22:41.877Z,29.85
2019-03-15T06:25:11.144Z,37.00
2019-03-15T06:27:39.372Z,39.30
2019-03-15T06:30:13.156Z,35.52
2019-03-15T06:32:41.377Z,41.08
2019-03-15T06:35:09.602Z,36.40
2019-03-15T06:37:37.862Z,32.83
2019-03-15T06:40:08.420Z,36.37
2019-03-15T06:42:36.651Z,37.50
2019-03-15T06:45:13.224Z,44.58
2019-03-15T06:47:43.145Z,32.95
2019-03-15T06:50:11.375Z,29.47
2019-03-15T06:52:39.587Z,36.03
2019-03-15T06:55:08.530Z,39.98
2019-03-15T06:57:36.758Z,27.85
2019-03-15T07:00:08.169Z,38.60
2019-03-15T07:02:36.386Z,37.88
2019-03-15T07:05:06.345Z,41.40
2019-03-15T07:07:34.683Z,31.37
2019-03-15T07:10:02.972Z,33.88
2019-03-15T07:12:31.193Z,31.33
2019-03-15T07:14:59.412Z,31.20
2019-03-15T07:17:27.667Z,31.20
2019-03-15T07:19:55.844Z,30.80
2019-03-15T07:22:24.075Z,39.33
2019-03-15T07:24:52.297Z,30.77
2019-03-15T07:27:20.510Z,33.63
2019-03-15T07:29:48.725Z,36.15
2019-03-15T07:32:16.932Z,29.90
2019-03-15T07:34:45.158Z,32.60
2019-03-15T07:37:13.373Z,26.07
2019-03-15T07:39:41.629Z,26.53
2019-03-15T07:42:09.847Z,33.02
2019-03-15T07:44:38.098Z,32.80
2019-03-15T07:47:06.302Z,29.85
2019-03-15T07:49:34.586Z,29.07
2019-03-15T07:52:03.916Z,26.27
2019-03-15T07:54:37.977Z,30.02
2019-03-15T07:57:02.282Z,31.27
2019-03-15T07:59:30.522Z,30.37
2019-03-15T08:01:58.749Z,33.57
2019-03-15T08:04:26.953Z,34.43
2019-03-15T08:06:55.170Z,34.23
2019-03-15T08:09:23.394Z,27.67
2019-03-15T08:11:51.601Z,31.37
2019-03-15T08:14:19.825Z,26.83
2019-03-15T08:16:48.895Z,25.57
2019-03-15T08:19:17.109Z,33.90
2019-03-15T08:21:45.324Z,29.98
2019-03-15T08:24:13.538Z,29.82
2019-03-15T08:26:41.878Z,29.25
2019-03-15T08:29:10.218Z,37.03
2019-03-15T08:31:38.376Z,31.87
2019-03-15T08:34:06.596Z,29.82
2019-03-15T08:36:34.824Z,29.57
2019-03-15T08:39:03.410Z,37.90
2019-03-15T08:41:31.611Z,24.18
2019-03-15T08:43:59.865Z,26.42
2019-03-15T08:46:28.135Z,29.25
2019-03-15T08:48:56.352Z,28.70
2019-03-15T08:51:24.571Z,30.55
2019-03-15T08:53:52.779Z,28.90
2019-03-15T08:56:20.989Z,27.27
2019-03-15T08:58:49.195Z,25.88
2019-03-15T09:01:17.510Z,25.75
2019-03-15T09:03:45.822Z,26.50
2019-03-15T09:06:14.037Z,33.53
2019-03-15T09:08:42.256Z,30.52
2019-03-15T09:11:10.465Z,31.62
2019-03-15T09:13:38.681Z,25.48
2019-03-15T09:16:06.897Z,32.20
2019-03-15T09:18:35.103Z,24.82
2019-03-15T09:21:03.317Z,28.15
2019-03-15T09:23:31.527Z,31.77
2019-03-15T09:25:59.773Z,26.65
2019-03-15T09:28:27.974Z,24.60
2019-03-15T09:30:56.199Z,26.35
2019-03-15T09:33:24.439Z,26.35
2019-03-15T09:35:52.661Z,24.45
2019-03-15T09:38:20.878Z,29.25
2019-03-15T09:40:49.493Z,20.12
2019-03-15T09:43:17.717Z,27.07
2019-03-15T09:45:45.930Z,23.47
2019-03-15T09:48:14.167Z,22.37
2019-03-15T09:50:51.024Z,20.05
2019-03-15T09:53:12.314Z,24.57
2019-03-15T09:55:40.529Z,18.60
2019-03-15T09:58:08.736Z,18.12
2019-03-15T10:00:37.007Z,20.68
2019-03-15T10:03:05.196Z,19.05
2019-03-15T10:05:33.400Z,18.37
2019-03-15T10:08:01.609Z,16.30
2019-03-15T10:10:29.824Z,20.50
2019-03-15T10:13:05.955Z,18.50
2019-03-15T10:15:27.987Z,17.43
2019-03-15T10:17:56.191Z,15.28
2019-03-15T10:20:24.408Z,16.37
2019-03-15T10:23:05.567Z,18.42
2019-03-15T10:25:22.580Z,22.67
2019-03-15T10:27:50.788Z,18.42
2019-03-15T10:30:20.942Z,16.82
2019-03-15T10:32:49.898Z,18.02
2019-03-15T10:35:18.200Z,20.45
2019-03-15T10:37:46.406Z,20.90
2019-03-15T10:40:19.784Z,16.75
2019-03-15T10:42:48.032Z,19.07
2019-03-15T10:45:16.242Z,21.20
2019-03-15T10:47:44.454Z,23.80
2019-03-15T10:50:14.407Z,25.77
2019-03-15T10:52:42.627Z,21.95
2019-03-15T10:55:10.906Z,20.40
2019-03-15T10:57:39.112Z,25.00
2019-03-15T11:00:18.027Z,24.90
2019-03-15T11:02:46.255Z,27.22
2019-03-15T11:05:14.465Z,22.10
2019-03-15T11:07:42.692Z,20.92
2019-03-15T11:10:11.675Z,25.92
2019-03-15T11:12:39.875Z,23.20
2019-03-15T11:15:10.431Z,20.88
2019-03-15T11:17:38.757Z,21.48
2019-03-15T11:20:09.090Z,22.82
2019-03-15T11:22:37.354Z,26.03
2019-03-15T11:25:07.380Z,27.65
2019-03-15T11:27:35.676Z,21.50
2019-03-15T11:30:05.090Z,27.20
2019-03-15T11:32:33.304Z,27.07
2019-03-15T11:35:01.638Z,34.05
2019-03-15T11:37:29.857Z,27.70
2019-03-15T11:39:58.096Z,29.37
2019-03-15T11:42:26.317Z,21.73
2019-03-15T11:44:54.522Z,20.45
2019-03-15T11:47:22.747Z,22.30
2019-03-15T11:49:50.961Z,20.62
2019-03-15T11:52:19.176Z,25.52
2019-03-15T11:54:49.854Z,19.97
2019-03-15T11:57:17.346Z,18.23
2019-03-15T11:59:45.704Z,21.40
2019-03-15T12:02:14.077Z,22.95
2019-03-15T12:04:42.300Z,16.17
2019-03-15T12:07:10.691Z,18.52
2019-03-15T12:09:40.958Z,13.32
2019-03-15T12:12:08.889Z,20.40
2019-03-15T12:14:41.244Z,17.55
2019-03-15T12:17:07.045Z,14.30
2019-03-15T12:19:35.301Z,14.53
2019-03-15T12:22:06.565Z,14.30
2019-03-15T12:24:33.449Z,9.93
2019-03-15T12:27:01.664Z,10.00
2019-03-15T12:29:29.899Z,11.28
2019-03-15T12:31:58.122Z,11.33
2019-03-15T12:34:26.326Z,9.98
2019-03-15T12:36:54.533Z,8.85
2019-03-15T12:39:22.747Z,9.08
2019-03-15T12:41:50.954Z,8.98
2019-03-15T12:44:19.163Z,8.40
2019-03-15T12:46:47.454Z,8.58
2019-03-15T12:49:15.686Z,8.60
2019-03-15T12:51:43.885Z,8.60
2019-03-15T12:54:12.097Z,9.35
2019-03-15T12:56:52.863Z,7.90
2019-03-15T12:59:10.249Z,7.47
2019-03-15T13:01:38.537Z,8.08
2019-03-15T13:04:06.687Z,8.35
2019-03-15T13:06:34.932Z,7.78
2019-03-15T13:09:03.643Z,7.15
2019-03-15T13:11:31.864Z,8.30
2019-03-15T13:14:00.081Z,8.03
2019-03-15T13:16:28.356Z,10.78
2019-03-15T13:18:56.575Z,9.08
2019-03-15T13:21:24.855Z,6.62
2019-03-15T13:23:53.071Z,8.23
2019-03-15T13:26:21.281Z,7.10
2019-03-15T13:28:49.489Z,7.78
2019-03-15T13:31:17.724Z,12.55
2019-03-15T13:33:45.937Z,9.30
2019-03-15T13:36:14.208Z,9.80
2019-03-15T13:38:42.428Z,9.35
2019-03-15T13:41:10.644Z,8.65
2019-03-15T13:43:38.861Z,12.98
2019-03-15T13:46:07.080Z,15.60
2019-03-15T13:48:35.289Z,12.88
2019-03-15T13:51:03.509Z,13.48
2019-03-15T13:53:31.729Z,16.67
2019-03-15T13:55:59.949Z,11.53
2019-03-15T13:58:28.161Z,12.85
2019-03-15T14:00:56.376Z,13.62
2019-03-15T14:03:24.599Z,12.37
2019-03-15T14:05:52.821Z,11.43
2019-03-15T14:08:21.142Z,11.75
2019-03-15T14:10:49.949Z,12.10
2019-03-15T14:13:18.147Z,10.10
2019-03-15T14:15:46.363Z,13.58
2019-03-15T14:18:14.608Z,11.68
2019-03-15T14:20:42.814Z,16.90
2019-03-15T14:23:11.041Z,10.72
2019-03-15T14:25:39.279Z,13.35
2019-03-15T14:28:07.510Z,14.47
2019-03-15T14:30:36.584Z,15.48
2019-03-15T14:33:04.802Z,15.43
2019-03-15T14:35:33.019Z,13.58
2019-03-15T14:38:01.540Z,14.80
2019-03-15T14:40:29.915Z,12.90
2019-03-15T14:42:59.888Z,15.15
2019-03-15T14:45:28.707Z,17.67
2019-03-15T14:47:58.054Z,16.87
2019-03-15T14:50:29.188Z,15.00
2019-03-15T14:52:57.432Z,14.67
2019-03-15T14:55:25.637Z,12.85
2019-03-15T14:57:53.860Z,12.30
2019-03-15T15:00:22.079Z,17.12
2019-03-15T15:02:50.286Z,12.15
2019-03-15T15:05:18.552Z,15.55
2019-03-15T15:07:46.791Z,16.97
2019-03-15T15:10:16.023Z,16.77
2019-03-15T15:12:44.247Z,18.30
2019-03-15T15:15:14.558Z,16.33
2019-03-15T15:17:43.374Z,23.13
2019-03-15T15:20:12.315Z,13.90
2019-03-15T15:22:40.536Z,14.85
2019-03-15T15:25:16.082Z,19.17
2019-03-15T15:27:44.341Z,18.67
2019-03-15T15:30:14.332Z,23.17
2019-03-15T15:32:42.578Z,16.37
2019-03-15T15:35:28.478Z,14.60
2019-03-15T15:37:56.700Z,17.60
2019-03-15T15:40:24.955Z,17.17
2019-03-15T15:42:53.179Z,20.55
2019-03-15T15:45:21.820Z,20.85
2019-03-15T15:47:50.034Z,21.82
2019-03-15T15:50:18.261Z,19.02
2019-03-15T15:52:46.470Z,21.90
2019-03-15T15:55:15.737Z,19.35
2019-03-15T15:57:43.978Z,15.25
2019-03-15T16:00:16.370Z,21.68
2019-03-15T16:02:44.583Z,22.20
2019-03-15T16:05:12.804Z,23.92
2019-03-15T16:07:41.099Z,26.15
2019-03-15T16:10:12.561Z,18.00
2019-03-15T16:12:40.795Z,21.82
2019-03-15T16:15:11.343Z,22.45
2019-03-15T16:17:39.539Z,22.67
2019-03-15T16:20:09.719Z,21.52
2019-03-15T16:22:38.121Z,20.27
2019-03-15T16:25:10.576Z,22.93
2019-03-15T16:27:38.788Z,21.60
2019-03-15T16:30:10.258Z,24.45
2019-03-15T16:32:38.514Z,19.80
2019-03-15T16:35:09.359Z,20.95
2019-03-15T16:37:37.570Z,21.60
2019-03-15T16:40:08.504Z,22.82
2019-03-15T16:42:36.811Z,18.30
2019-03-15T16:45:16.415Z,17.85
2019-03-15T16:47:44.626Z,18.12
2019-03-15T16:50:13.412Z,18.20
2019-03-15T16:52:41.655Z,17.48
2019-03-15T16:55:11.378Z,25.32
2019-03-15T16:57:39.593Z,19.98
2019-03-15T17:00:14.583Z,14.55
2019-03-15T17:02:42.805Z,21.77
2019-03-15T17:05:12.294Z,21.87
2019-03-15T17:07:40.506Z,22.95
2019-03-15T17:10:16.475Z,18.50
2019-03-15T17:12:44.766Z,29.25
2019-03-15T17:15:15.164Z,23.02
2019-03-15T17:17:43.388Z,19.77
2019-03-15T17:20:12.088Z,21.77
2019-03-15T17:22:40.292Z,18.23
2019-03-15T17:25:11.113Z,23.05
2019-03-15T17:27:39.338Z,31.15
2019-03-15T17:30:12.933Z,23.45
2019-03-15T17:32:41.145Z,28.65
2019-03-15T17:35:13.916Z,23.95
2019-03-15T17:37:42.422Z,27.48
2019-03-15T17:40:12.865Z,21.82
2019-03-15T17:42:41.071Z,18.80
2019-03-15T17:45:09.629Z,34.83
2019-03-15T17:47:37.865Z,24.52
2019-03-15T17:50:09.468Z,28.05
2019-03-15T17:52:37.717Z,25.32
2019-03-15T17:55:06.610Z,24.32
2019-03-15T17:57:35.722Z,27.02
2019-03-15T18:00:09.903Z,21.97
2019-03-15T18:02:38.112Z,30.92
2019-03-15T18:05:08.062Z,19.62
2019-03-15T18:07:36.309Z,20.08
2019-03-15T18:10:06.900Z,26.48
2019-03-15T18:12:35.119Z,26.65
2019-03-15T18:15:04.003Z,20.17
2019-03-15T18:17:32.226Z,22.60
2019-03-15T18:20:00.607Z,23.45
2019-03-15T18:22:28.850Z,21.10
2019-03-15T18:24:57.084Z,18.80
2019-03-15T18:27:25.415Z,22.45
2019-03-15T18:29:53.681Z,27.98
2019-03-15T18:32:22.906Z,28.38
2019-03-15T18:34:51.112Z,24.43
2019-03-15T18:37:19.325Z,29.45
2019-03-15T18:39:47.635Z,21.50
2019-03-15T18:42:15.848Z,28.85
2019-03-15T18:44:44.051Z,25.00
2019-03-15T18:47:12.265Z,25.82
2019-03-15T18:49:40.498Z,26.60
2019-03-15T18:52:08.706Z,25.15
2019-03-15T18:54:38.107Z,24.00
2019-03-15T18:57:06.431Z,27.82
2019-03-15T18:59:39.995Z,27.52
2019-03-15T19:02:04.576Z,18.02
2019-03-15T19:04:32.775Z,23.07
2019-03-15T19:07:01.005Z,22.95
2019-03-15T19:09:29.335Z,27.70
2019-03-15T19:11:57.555Z,23.02
2019-03-15T19:14:25.770Z,28.87
2019-03-15T19:16:53.995Z,26.82
2019-03-15T19:19:23.260Z,23.40
2019-03-15T19:21:51.485Z,31.90
2019-03-15T19:24:19.694Z,27.30
2019-03-15T19:26:47.984Z,23.60
2019-03-15T19:29:16.200Z,26.10
2019-03-15T19:31:44.430Z,24.57
2019-03-15T19:34:12.661Z,24.90
2019-03-15T19:36:40.870Z,27.42
2019-03-15T19:39:09.096Z,28.05
2019-03-15T19:41:37.328Z,21.60
2019-03-15T19:44:05.744Z,20.85
2019-03-15T19:46:34.073Z,23.67
2019-03-15T19:49:02.317Z,30.90
2019-03-15T19:51:30.532Z,29.67
2019-03-15T19:53:58.750Z,24.63
2019-03-15T19:56:26.974Z,29.92
2019-03-15T19:58:55.184Z,27.90
2019-03-15T20:01:23.593Z,26.55
2019-03-15T20:03:51.799Z,23.47
2019-03-15T20:06:20.036Z,25.10
2019-03-15T20:08:48.259Z,26.23
2019-03-15T20:11:16.493Z,34.15
2019-03-15T20:13:44.700Z,27.27
2019-03-15T20:16:12.917Z,26.93
2019-03-15T20:18:41.142Z,30.55
2019-03-15T20:21:09.391Z,28.20
2019-03-15T20:23:37.602Z,28.38
2019-03-15T20:26:05.807Z,27.13
2019-03-15T20:28:35.115Z,29.60
2019-03-15T20:31:03.328Z,27.73
2019-03-15T20:33:31.538Z,23.27
2019-03-15T20:35:59.769Z,22.80
2019-03-15T20:38:27.992Z,31.33
2019-03-15T20:40:56.199Z,33.08
2019-03-15T20:43:24.405Z,29.23
2019-03-15T20:45:52.614Z,29.30
2019-03-15T20:48:20.823Z,29.12
2019-03-15T20:50:50.021Z,32.20
2019-03-15T20:53:18.220Z,33.15
2019-03-15T20:55:47.418Z,27.40
2019-03-15T20:58:15.701Z,26.40
2019-03-15T21:00:43.928Z,29.57
2019-03-15T21:03:12.143Z,31.33
2019-03-15T21:05:40.356Z,29.82
2019-03-15T21:08:08.581Z,31.70
2019-03-15T21:10:36.788Z,28.75
2019-03-15T21:13:05.003Z,30.35
2019-03-15T21:15:33.212Z,28.67
2019-03-15T21:18:01.426Z,27.65
2019-03-15T21:20:29.658Z,20.08
2019-03-15T21:22:57.877Z,17.50
2019-03-15T21:25:26.094Z,32.28
2019-03-15T21:27:55.484Z,28.90
2019-03-15T21:30:27.686Z,22.18
2019-03-15T21:32:55.872Z,31.55
2019-03-15T21:35:24.361Z,31.85
2019-03-15T21:37:52.583Z,25.32
2019-03-15T21:40:21.961Z,33.70
2019-03-15T21:42:50.176Z,30.97
2019-03-15T21:45:18.569Z,29.30
2019-03-15T21:47:46.778Z,27.30
2019-03-15T21:50:19.474Z,25.10
2019-03-15T21:52:47.648Z,31.48
2019-03-15T21:55:15.869Z,29.75
2019-03-15T21:57:44.097Z,27.65
2019-03-15T22:00:17.280Z,30.70
2019-03-15T22:02:45.490Z,28.75
2019-03-15T22:05:13.708Z,27.52
2019-03-15T22:07:41.926Z,34.92
2019-03-15T22:10:13.833Z,21.40
2019-03-15T22:12:42.115Z,30.35
2019-03-15T22:15:13.703Z,29.98
2019-03-15T22:17:42.023Z,26.82
2019-03-15T22:20:17.832Z,31.33
2019-03-15T22:22:46.037Z,30.48
2019-03-15T22:25:14.251Z,26.73
2019-03-15T22:27:42.463Z,26.35
2019-03-15T22:30:12.883Z,26.15
2019-03-15T22:32:41.113Z,26.17
2019-03-15T22:35:09.303Z,30.30
2019-03-15T22:37:37.524Z,27.15
2019-03-15T22:40:10.682Z,30.20
2019-03-15T22:42:38.902Z,28.20
2019-03-15T22:45:11.657Z,26.37
2019-03-15T22:47:39.890Z,26.13
2019-03-15T22:50:09.705Z,35.05
2019-03-15T22:52:37.964Z,36.23
2019-03-15T22:55:08.224Z,28.45
2019-03-15T22:57:36.436Z,39.43
2019-03-15T23:00:13.661Z,26.25
2019-03-15T23:02:41.911Z,28.20
2019-03-15T23:05:10.127Z,32.08
2019-03-15T23:07:38.331Z,29.90
2019-03-15T23:10:08.687Z,35.70
2019-03-15T23:12:36.942Z,30.83
2019-03-15T23:15:07.612Z,29.03
2019-03-15T23:17:36.051Z,27.42
2019-03-15T23:20:08.661Z,28.83
2019-03-15T23:22:36.870Z,31.77
2019-03-15T23:25:06.616Z,26.60
2019-03-15T23:27:34.847Z,36.23
2019-03-15T23:30:03.116Z,26.27
2019-03-15T23:32:31.334Z,28.67
2019-03-15T23:34:59.572Z,25.32
2019-03-15T23:37:27.812Z,28.10
2019-03-15T23:39:56.067Z,27.90
2019-03-15T23:42:24.282Z,22.87
2019-03-15T23:44:52.522Z,28.32
2019-03-15T23:47:20.872Z,25.72
2019-03-15T23:49:49.079Z,29.55
2019-03-15T23:52:17.330Z,29.67
2019-03-15T23:54:45.574Z,24.00
2019-03-15T23:57:13.801Z,34.53
2019-03-15T23:59:42.012Z,34.10
